createdAt,value
2019-03-30T00:03:57.062Z,65.22
2019-03-30T00:08:01.951Z,66.79
2019-03-30T00:12:06.852Z,67.58
2019-03-30T00:16:11.759Z,67.97
2019-03-30T00:20:17.725Z,68.59
2019-03-30T00:24:22.614Z,68.89
2019-03-30T00:28:27.501Z,67.87
2019-03-30T00:32:32.402Z,67.58
2019-03-30T00:36:37.295Z,66.70
2019-03-30T00:40:42.186Z,67.27
2019-03-30T00:44:48.723Z,67.31
2019-03-30T00:48:53.620Z,66.55
2019-03-30T00:52:58.512Z,66.80
2019-03-30T00:57:03.423Z,66.69
2019-03-30T01:01:08.316Z,67.46
2019-03-30T01:05:13.284Z,67.67
2019-03-30T01:09:18.173Z,67.66
2019-03-30T01:13:23.072Z,67.05
2019-03-30T01:17:27.954Z,66.82
2019-03-30T01:21:32.854Z,66.21
2019-03-30T01:25:38.730Z,65.45
2019-03-30T01:29:43.612Z,65.50
2019-03-30T01:33:48.509Z,65.05
2019-03-30T01:37:53.402Z,66.05
2019-03-30T01:41:58.298Z,65.94
2019-03-30T01:46:03.191Z,65.72
2019-03-30T01:50:17.045Z,66.46
2019-03-30T01:54:16.532Z,66.08
2019-03-30T01:58:21.414Z,66.87
2019-03-30T02:02:26.311Z,66.86
2019-03-30T02:06:31.206Z,67.49
2019-03-30T02:10:43.612Z,69.06
2019-03-30T02:14:48.513Z,68.08
2019-03-30T02:18:53.400Z,68.62
2019-03-30T02:22:58.351Z,68.92
2019-03-30T02:27:03.193Z,68.53
2019-03-30T02:31:08.164Z,67.59
2019-03-30T02:35:13.063Z,67.12
2019-03-30T02:39:17.958Z,67.08
2019-03-30T02:43:23.917Z,66.52
2019-03-30T02:47:28.818Z,65.89
2019-03-30T02:51:33.713Z,65.72
2019-03-30T02:55:38.609Z,67.09
2019-03-30T02:59:43.519Z,67.26
2019-03-30T03:03:48.391Z,67.96
2019-03-30T03:07:53.284Z,67.64
2019-03-30T03:11:58.186Z,68.11
2019-03-30T03:16:03.096Z,68.49
2019-03-30T03:20:08.055Z,67.97
2019-03-30T03:24:12.945Z,68.39
2019-03-30T03:28:17.839Z,68.77
2019-03-30T03:32:22.766Z,68.58
2019-03-30T03:36:27.651Z,68.67
2019-03-30T03:40:32.634Z,68.38
2019-03-30T03:44:37.522Z,67.43
2019-03-30T03:48:42.429Z,67.78
2019-03-30T03:52:47.850Z,68.32
2019-03-30T03:56:53.787Z,68.81
2019-03-30T04:01:00.256Z,68.80
2019-03-30T04:05:07.696Z,68.68
2019-03-30T04:09:15.653Z,68.83
2019-03-30T04:13:22.941Z,68.91
2019-03-30T04:17:27.845Z,68.63
2019-03-30T04:21:43.607Z,69.03
2019-03-30T04:25:39.357Z,68.82
2019-03-30T04:29:44.231Z,69.15
2019-03-30T04:33:49.130Z,68.90
2019-03-30T04:37:54.022Z,69.91
2019-03-30T04:41:58.932Z,70.30
2019-03-30T04:46:03.824Z,70.12
2019-03-30T04:50:09.263Z,70.28
2019-03-30T04:54:14.149Z,70.21
2019-03-30T04:58:19.058Z,70.18
2019-03-30T05:02:23.958Z,70.25
2019-03-30T05:06:28.857Z,70.38
2019-03-30T05:10:33.759Z,71.08
2019-03-30T05:14:38.644Z,71.90
2019-03-30T05:18:43.540Z,71.54
2019-03-30T05:22:51.188Z,71.15
2019-03-30T05:26:55.024Z,70.46
2019-03-30T05:30:59.917Z,69.66
2019-03-30T05:35:06.445Z,69.26
2019-03-30T05:39:11.336Z,68.16
2019-03-30T05:43:16.242Z,68.20
2019-03-30T05:47:21.130Z,67.26
2019-03-30T05:51:26.059Z,66.65
2019-03-30T05:55:30.936Z,67.22
2019-03-30T05:59:35.825Z,67.57
2019-03-30T06:03:40.717Z,68.18
2019-03-30T06:07:45.615Z,68.17
2019-03-30T06:11:50.507Z,68.42
2019-03-30T06:15:55.412Z,68.09
2019-03-30T06:20:00.393Z,67.87
2019-03-30T06:24:05.271Z,67.46
2019-03-30T06:28:10.184Z,67.19
2019-03-30T06:32:15.083Z,67.38
2019-03-30T06:36:19.980Z,67.45
2019-03-30T06:40:24.871Z,66.52
2019-03-30T06:44:29.768Z,58.59
2019-03-30T06:48:36.304Z,50.72
2019-03-30T06:52:56.370Z,46.00
2019-03-30T06:56:47.962Z,44.05
2019-03-30T07:00:53.808Z,44.87
2019-03-30T07:04:58.708Z,47.29
2019-03-30T07:09:04.622Z,50.11
2019-03-30T07:13:09.524Z,52.56
2019-03-30T07:17:14.912Z,54.46
2019-03-30T07:21:19.796Z,56.20
2019-03-30T07:25:25.332Z,57.36
2019-03-30T07:29:30.247Z,58.26
2019-03-30T07:33:35.192Z,59.33
2019-03-30T07:37:40.102Z,59.34
2019-03-30T07:41:44.997Z,59.03
2019-03-30T07:45:49.893Z,59.23
2019-03-30T07:49:54.805Z,59.15
2019-03-30T07:53:59.721Z,59.09
2019-03-30T07:58:04.654Z,60.09
2019-03-30T08:02:09.556Z,58.99
2019-03-30T08:06:14.463Z,57.99
2019-03-30T08:10:19.363Z,57.48
2019-03-30T08:14:24.276Z,56.99
2019-03-30T08:18:29.187Z,56.18
2019-03-30T08:22:34.099Z,55.74
2019-03-30T08:26:39.010Z,56.56
2019-03-30T08:30:43.909Z,55.98
2019-03-30T08:34:48.825Z,53.53
2019-03-30T08:38:53.734Z,52.71
2019-03-30T08:42:58.726Z,51.41
2019-03-30T08:47:03.633Z,51.37
2019-03-30T08:51:08.523Z,51.22
2019-03-30T08:55:13.605Z,51.45
2019-03-30T08:59:18.503Z,51.39
2019-03-30T09:03:23.413Z,51.17
2019-03-30T09:07:28.345Z,50.51
2019-03-30T09:11:33.249Z,50.49
2019-03-30T09:15:38.153Z,50.63
2019-03-30T09:19:43.902Z,49.98
2019-03-30T09:23:48.812Z,50.33
2019-03-30T09:27:53.726Z,49.93
2019-03-30T09:32:13.244Z,48.97
2019-03-30T09:36:05.252Z,49.01
2019-03-30T09:40:10.231Z,48.88
2019-03-30T09:44:15.163Z,48.74
2019-03-30T09:48:20.082Z,47.92
2019-03-30T09:52:24.999Z,47.88
2019-03-30T09:56:29.895Z,47.65
2019-03-30T10:00:34.885Z,47.31
2019-03-30T10:04:39.797Z,47.50
2019-03-30T10:08:44.698Z,47.34
2019-03-30T10:12:49.620Z,47.04
2019-03-30T10:16:54.531Z,46.50
2019-03-30T10:20:59.428Z,46.33
2019-03-30T10:25:05.888Z,46.41
2019-03-30T10:29:10.800Z,46.10
2019-03-30T10:33:15.711Z,45.98
2019-03-30T10:37:20.621Z,44.91
2019-03-30T10:41:25.524Z,44.50
2019-03-30T10:45:30.435Z,44.49
2019-03-30T10:49:35.345Z,44.94
2019-03-30T10:53:40.261Z,44.28
2019-03-30T10:57:45.173Z,43.34
2019-03-30T11:01:50.083Z,43.95
2019-03-30T11:05:54.995Z,43.17
2019-03-30T11:09:59.909Z,42.87
2019-03-30T11:14:04.822Z,42.45
2019-03-30T11:18:09.734Z,42.32
2019-03-30T11:22:14.726Z,41.65
2019-03-30T11:26:19.619Z,41.48
2019-03-30T11:30:24.534Z,40.24
2019-03-30T11:34:30.414Z,40.93
2019-03-30T11:38:35.327Z,39.43
2019-03-30T11:42:40.236Z,39.23
2019-03-30T11:46:45.143Z,39.42
2019-03-30T11:50:50.071Z,39.36
2019-03-30T11:54:54.977Z,39.65
2019-03-30T11:58:59.887Z,39.00
2019-03-30T12:03:04.785Z,37.01
2019-03-30T12:07:09.691Z,37.05
2019-03-30T12:11:14.615Z,37.49
2019-03-30T12:15:19.514Z,37.46
2019-03-30T12:19:24.437Z,36.46
2019-03-30T12:23:29.339Z,35.03
2019-03-30T12:27:34.230Z,34.73
2019-03-30T12:31:39.133Z,36.19
2019-03-30T12:35:44.040Z,34.39
2019-03-30T12:39:49.027Z,34.87
2019-03-30T12:43:53.931Z,34.59
2019-03-30T12:47:58.892Z,33.59
2019-03-30T12:52:04.889Z,32.53
2019-03-30T12:56:10.771Z,32.03
2019-03-30T13:00:16.225Z,32.08
2019-03-30T13:04:21.134Z,32.00
2019-03-30T13:08:26.078Z,35.27
2019-03-30T13:12:30.973Z,31.58
2019-03-30T13:16:35.873Z,30.98
2019-03-30T13:20:40.784Z,30.29
2019-03-30T13:24:45.688Z,30.42
2019-03-30T13:28:50.598Z,30.32
2019-03-30T13:32:55.491Z,30.79
2019-03-30T13:37:01.917Z,31.06
2019-03-30T13:41:06.820Z,31.00
2019-03-30T13:45:11.864Z,30.07
2019-03-30T13:49:16.772Z,30.72
2019-03-30T13:53:21.670Z,30.82
2019-03-30T13:57:26.573Z,31.31
2019-03-30T14:01:31.480Z,31.25
2019-03-30T14:05:36.386Z,31.04
2019-03-30T14:09:41.286Z,31.25
2019-03-30T14:13:46.186Z,31.77
2019-03-30T14:17:51.084Z,32.54
2019-03-30T14:21:55.990Z,32.71
2019-03-30T14:26:00.908Z,33.07
2019-03-30T14:30:10.859Z,33.33
2019-03-30T14:34:15.767Z,33.87
2019-03-30T14:38:20.659Z,33.84
2019-03-30T14:42:25.573Z,34.07
2019-03-30T14:46:30.485Z,34.50
2019-03-30T14:50:35.387Z,34.36
2019-03-30T14:54:52.123Z,34.11
2019-03-30T14:58:46.889Z,34.38
2019-03-30T15:02:51.798Z,34.14
2019-03-30T15:06:56.708Z,34.10
2019-03-30T15:11:01.617Z,34.05
2019-03-30T15:15:09.753Z,33.95
2019-03-30T15:19:15.630Z,33.82
2019-03-30T15:23:20.529Z,32.71
2019-03-30T15:27:25.431Z,32.18
2019-03-30T15:31:30.331Z,31.85
2019-03-30T15:35:35.236Z,31.92
2019-03-30T15:39:40.140Z,31.95
2019-03-30T15:43:45.034Z,30.39
2019-03-30T15:47:49.934Z,31.49
2019-03-30T15:51:54.838Z,32.28
2019-03-30T15:55:59.736Z,32.25
2019-03-30T16:00:07.778Z,32.28
2019-03-30T16:04:12.683Z,32.25
2019-03-30T16:08:17.577Z,32.29
2019-03-30T16:12:22.480Z,32.84
2019-03-30T16:16:27.374Z,32.92
2019-03-30T16:20:32.279Z,32.94
2019-03-30T16:24:37.174Z,33.06
2019-03-30T16:28:42.082Z,33.84
2019-03-30T16:32:46.990Z,34.23
2019-03-30T16:36:51.907Z,34.47
2019-03-30T16:40:56.804Z,34.58
2019-03-30T16:45:01.715Z,34.91
2019-03-30T16:49:07.781Z,35.09
2019-03-30T16:53:12.694Z,35.27
2019-03-30T16:57:17.598Z,35.17
2019-03-30T17:01:22.505Z,35.15
2019-03-30T17:05:27.419Z,35.21
2019-03-30T17:09:32.309Z,35.49
2019-03-30T17:13:37.223Z,35.69
2019-03-30T17:17:42.126Z,35.71
2019-03-30T17:21:47.033Z,35.84
2019-03-30T17:25:51.940Z,35.85
2019-03-30T17:29:57.806Z,35.75
2019-03-30T17:34:02.711Z,36.49
2019-03-30T17:38:07.622Z,36.46
2019-03-30T17:42:12.535Z,36.70
2019-03-30T17:46:17.452Z,36.44
2019-03-30T17:50:22.356Z,37.12
2019-03-30T17:54:27.256Z,37.37
2019-03-30T17:58:32.162Z,36.99
2019-03-30T18:02:37.071Z,36.08
2019-03-30T18:06:41.984Z,35.38
2019-03-30T18:10:46.881Z,34.91
2019-03-30T18:14:51.786Z,35.71
2019-03-30T18:18:56.700Z,35.69
2019-03-30T18:23:01.608Z,35.77
2019-03-30T18:27:06.497Z,36.48
2019-03-30T18:31:11.464Z,37.25
2019-03-30T18:35:16.382Z,38.17
2019-03-30T18:39:21.344Z,39.06
2019-03-30T18:43:26.618Z,39.65
2019-03-30T18:47:31.513Z,40.44
2019-03-30T18:51:38.543Z,41.27
2019-03-30T18:55:43.437Z,41.43
2019-03-30T18:59:48.339Z,41.42
2019-03-30T19:03:53.233Z,41.67
2019-03-30T19:07:58.137Z,41.83
2019-03-30T19:12:03.666Z,42.12
2019-03-30T19:16:08.565Z,41.72
2019-03-30T19:20:13.691Z,41.80
2019-03-30T19:24:18.589Z,41.88
2019-03-30T19:28:23.500Z,42.31
2019-03-30T19:32:28.388Z,42.97
2019-03-30T19:36:33.288Z,43.17
2019-03-30T19:40:38.186Z,43.72
2019-03-30T19:44:43.080Z,44.39
2019-03-30T19:48:47.984Z,44.65
2019-03-30T19:52:52.874Z,44.72
2019-03-30T19:56:57.773Z,45.29
2019-03-30T20:01:02.666Z,45.72
2019-03-30T20:05:07.897Z,46.23
2019-03-30T20:09:12.792Z,46.27
2019-03-30T20:13:17.682Z,46.00
2019-03-30T20:17:22.587Z,46.01
2019-03-30T20:21:27.552Z,46.67
2019-03-30T20:25:33.426Z,47.55
2019-03-30T20:29:38.323Z,47.81
2019-03-30T20:33:43.204Z,47.83
2019-03-30T20:37:48.100Z,48.16
2019-03-30T20:41:53.000Z,48.27
2019-03-30T20:45:57.900Z,48.53
2019-03-30T20:50:02.879Z,48.87
2019-03-30T20:54:07.778Z,48.90
2019-03-30T20:58:12.732Z,48.93
2019-03-30T21:02:17.635Z,49.25
2019-03-30T21:06:22.536Z,49.60
2019-03-30T21:10:27.432Z,49.82
2019-03-30T21:14:32.341Z,50.15
2019-03-30T21:18:37.235Z,50.44
2019-03-30T21:22:42.140Z,50.60
2019-03-30T21:26:47.042Z,51.10
2019-03-30T21:30:51.952Z,51.85
2019-03-30T21:34:56.858Z,51.89
2019-03-30T21:39:01.753Z,51.94
2019-03-30T21:43:07.919Z,51.85
2019-03-30T21:47:12.818Z,52.29
2019-03-30T21:51:18.684Z,52.83
2019-03-30T21:55:23.622Z,53.10
2019-03-30T21:59:28.507Z,53.08
2019-03-30T22:03:33.410Z,52.82
2019-03-30T22:07:38.304Z,52.91
2019-03-30T22:11:43.207Z,53.29
2019-03-30T22:15:48.105Z,53.48
2019-03-30T22:19:52.996Z,53.57
2019-03-30T22:23:57.897Z,53.85
2019-03-30T22:28:02.799Z,54.17
2019-03-30T22:32:07.691Z,54.43
2019-03-30T22:36:12.585Z,54.38
2019-03-30T22:40:17.469Z,54.90
2019-03-30T22:44:22.363Z,54.67
2019-03-30T22:48:27.258Z,54.98
2019-03-30T22:52:32.158Z,55.25
2019-03-30T22:56:37.054Z,55.30
2019-03-30T23:00:43.652Z,55.38
2019-03-30T23:04:50.138Z,55.18
2019-03-30T23:08:55.033Z,55.14
2019-03-30T23:12:59.934Z,55.51
2019-03-30T23:17:05.099Z,56.10
2019-03-30T23:21:09.978Z,56.56
2019-03-30T23:25:14.880Z,56.30
2019-03-30T23:29:19.772Z,56.39
2019-03-30T23:33:24.667Z,56.68
2019-03-30T23:37:29.564Z,56.67
2019-03-30T23:41:34.446Z,56.44
2019-03-30T23:45:39.337Z,56.83
2019-03-30T23:49:44.235Z,56.44
2019-03-30T23:53:49.125Z,56.77
2019-03-30T23:57:54.022Z,57.40
